Time;durP1;ratioP1;P1;durP2;ratioP2;P2;SDS_P1;SDS_P2;PMS_P1;PMS_P2;Temp;Humidity;BMP_temperature;BMP_pressure;BME280_temperature;BME280_humidity;BME280_pressure;Samples;Min_cycle;Max_cycle;Signal;HPM_P1;HPM_P2
2022/06/02 00:01:42;;;;;;;1.27;0.88;;;;;;;12.45;100.00;99591.19;5042497;28;20055;-93
2022/06/02 00:04:35;;;;;;;2.53;0.90;;;;;;;12.44;100.00;99603.44;5057741;28;20060;-93
2022/06/02 00:07:34;;;;;;;1.00;0.93;;;;;;;12.53;100.00;99612.78;5043198;28;20037;-93
2022/06/02 00:10:51;;;;;;;1.85;1.27;;;;;;;12.52;100.00;99630.31;5042374;28;20111;-93
2022/06/02 00:14:03;;;;;;;1.02;0.82;;;;;;;12.30;100.00;99643.31;5040738;28;20383;-93
2022/06/02 00:17:08;;;;;;;1.20;0.90;;;;;;;12.46;100.00;99645.44;5026960;28;20094;-93
2022/06/02 00:20:13;;;;;;;1.52;0.82;;;;;;;12.46;100.00;99641.03;5043140;28;20082;-93
2022/06/02 00:23:25;;;;;;;1.65;1.48;;;;;;;12.46;100.00;99633.16;5043258;28;20032;-93
2022/06/02 00:26:47;;;;;;;2.90;1.67;;;;;;;12.34;100.00;99623.06;5042534;28;20039;-93
2022/06/02 00:29:41;;;;;;;1.55;1.27;;;;;;;12.31;100.00;99631.06;5046018;28;20473;-93
2022/06/02 00:32:37;;;;;;;1.30;1.08;;;;;;;11.97;100.00;99608.59;5056415;28;20037;-93
2022/06/02 00:35:21;;;;;;;2.42;1.15;;;;;;;12.25;100.00;99641.75;5042969;28;20115;-93
2022/06/02 00:38:23;;;;;;;2.03;1.35;;;;;;;11.80;100.00;99621.41;5043124;28;20044;-93
2022/06/02 00:41:07;;;;;;;2.28;1.55;;;;;;;12.11;100.00;99642.25;5041242;28;20086;-93
2022/06/02 00:44:15;;;;;;;2.00;1.63;;;;;;;12.00;100.00;99644.38;5026648;28;21447;-93
2022/06/02 00:47:08;;;;;;;2.90;1.90;;;;;;;12.21;100.00;99655.91;5042606;28;20041;-94
2022/06/02 00:50:07;;;;;;;3.80;1.88;;;;;;;12.28;100.00;99662.66;5047223;28;20047;-93
2022/06/02 00:53:10;;;;;;;2.10;1.90;;;;;;;12.24;100.00;99677.66;5041688;28;20086;-93
2022/06/02 00:59:36;;;;;;;2.85;2.60;;;;;;;12.33;100.00;99687.88;5070619;28;19962;-93
2022/06/02 01:02:22;;;;;;;3.17;2.53;;;;;;;12.13;100.00;99674.56;5041260;28;20040;-93
2022/06/02 01:05:06;;;;;;;3.10;2.45;;;;;;;11.98;100.00;99696.06;5042900;28;20044;-93
2022/06/02 01:08:05;;;;;;;2.72;1.98;;;;;;;11.92;100.00;99703.22;5042640;28;20051;-93
2022/06/02 01:11:28;;;;;;;3.90;2.58;;;;;;;11.84;100.00;99684.25;5041667;28;20044;-93
2022/06/02 01:14:29;;;;;;;1.67;1.58;;;;;;;11.94;100.00;99674.31;5041195;28;20061;-93
2022/06/02 01:17:26;;;;;;;3.22;1.90;;;;;;;11.94;100.00;99695.31;5040816;28;20049;-93
2022/06/02 01:20:23;;;;;;;1.90;1.80;;;;;;;12.08;100.00;99708.81;5042117;28;20053;-94
2022/06/02 01:23:18;;;;;;;4.72;2.13;;;;;;;12.15;100.00;99696.34;5040626;28;20047;-93
2022/06/02 01:26:21;;;;;;;2.70;2.00;;;;;;;11.99;100.00;99700.38;5041508;28;20037;-92
2022/06/02 01:29:18;;;;;;;2.88;1.88;;;;;;;11.96;100.00;99692.63;5041803;28;20039;-93
2022/06/02 01:32:08;;;;;;;2.00;1.70;;;;;;;12.10;100.00;99690.41;5041592;28;20032;-93
2022/06/02 01:35:13;;;;;;;2.55;1.23;;;;;;;12.20;100.00;99670.81;5042145;28;20098;-93
2022/06/02 01:37:58;;;;;;;2.25;1.60;;;;;;;11.96;100.00;99677.75;5042068;28;20690;-92
2022/06/02 01:40:56;;;;;;;3.05;1.40;;;;;;;12.06;100.00;99667.81;5047358;28;20033;-92
2022/06/02 01:44:10;;;;;;;2.30;1.73;;;;;;;11.79;100.00;99674.75;5041474;28;20052;-93
2022/06/02 01:46:59;;;;;;;;;;;;;;;11.94;100.00;99671.69;5053712;28;20032;-93
2022/06/02 01:50:18;;;;;;;2.47;1.63;;;;;;;11.82;100.00;99674.66;5042862;28;19924;-93
2022/06/02 01:53:48;;;;;;;2.60;1.52;;;;;;;11.60;100.00;99674.47;5047851;28;20160;-93
2022/06/02 01:56:52;;;;;;;3.10;1.45;;;;;;;11.67;100.00;99661.16;5055763;28;20055;-93
2022/06/02 02:00:02;;;;;;;1.63;1.17;;;;;;;11.57;100.00;99678.09;5055502;28;20048;-93
2022/06/02 02:03:14;;;;;;;1.20;1.10;;;;;;;11.63;100.00;99687.50;5055468;28;20048;-93
2022/06/02 02:06:26;;;;;;;1.83;1.23;;;;;;;11.71;100.00;99675.03;5056040;28;20028;-93
2022/06/02 02:09:18;;;;;;;1.88;1.42;;;;;;;11.63;100.00;99674.38;5041582;28;20059;-93
2022/06/02 02:12:09;;;;;;;2.38;2.05;;;;;;;11.81;100.00;99659.84;5042453;28;20060;-93
2022/06/02 02:15:16;;;;;;;3.05;1.90;;;;;;;11.54;100.00;99638.84;5055465;28;20033;-92
2022/06/02 02:18:12;;;;;;;2.60;1.60;;;;;;;11.74;100.00;99663.56;5040797;28;20047;-93
2022/06/02 02:21:09;;;;;;;2.95;1.55;;;;;;;11.79;100.00;99666.88;5054287;28;20108;-93
2022/06/02 02:24:12;;;;;;;3.85;1.90;;;;;;;11.70;100.00;99670.69;5040811;28;20367;-93
2022/06/02 02:27:06;;;;;;;;;;;;;;;11.76;100.00;99680.97;5040885;28;20041;-93
2022/06/02 02:30:02;;;;;;;2.67;2.05;;;;;;;11.82;100.00;99683.38;5039575;28;19920;-93
2022/06/02 02:33:12;;;;;;;5.63;2.30;;;;;;;11.85;100.00;99685.94;5053937;28;20048;-92
2022/06/02 02:36:02;;;;;;;5.82;3.60;;;;;;;11.85;100.00;99687.72;5051408;28;20036;-93
2022/06/02 02:39:02;;;;;;;4.78;3.20;;;;;;;11.73;100.00;99664.47;5043229;28;20540;-93
2022/06/02 02:41:59;;;;;;;5.90;3.08;;;;;;;11.74;100.00;99666.19;5044035;28;20079;-93
2022/06/02 02:45:06;;;;;;;4.85;3.42;;;;;;;11.73;100.00;99674.97;5044859;28;20546;-93
2022/06/02 02:48:18;;;;;;;4.63;3.40;;;;;;;11.50;100.00;99680.91;5045044;28;20136;-93
2022/06/02 02:51:16;;;;;;;4.85;3.45;;;;;;;11.44;100.00;99684.63;5044394;28;20037;-92
2022/06/02 02:54:04;;;;;;;6.78;3.35;;;;;;;11.51;100.00;99666.94;5058016;28;20040;-93
2022/06/02 02:57:18;;;;;;;4.25;3.25;;;;;;;11.41;100.00;99659.34;5044546;28;20040;-92
2022/06/02 03:00:22;;;;;;;4.88;4.38;;;;;;;11.64;100.00;99684.00;5043759;28;20062;-93
2022/06/02 03:03:19;;;;;;;4.68;4.13;;;;;;;11.70;100.00;99686.44;5044486;28;20036;-93
2022/06/02 03:06:27;;;;;;;6.18;5.32;;;;;;;11.74;100.00;99697.69;5044496;28;20206;-93
2022/06/02 03:09:18;;;;;;;6.20;4.70;;;;;;;11.71;100.00;99669.78;5044406;28;20126;-92
2022/06/02 03:12:09;;;;;;;4.97;4.18;;;;;;;11.80;100.00;99679.13;5058426;28;20498;-93
2022/06/02 03:15:02;;;;;;;5.93;4.43;;;;;;;11.60;100.00;99661.38;5044393;28;20032;-93
2022/06/02 03:18:00;;;;;;;10.05;5.18;;;;;;;11.66;100.00;99667.28;5057392;28;20040;-92
2022/06/02 03:21:18;;;;;;;3.97;3.47;;;;;;;11.83;100.00;99685.13;5037354;28;20044;-92
2022/06/02 03:24:21;;;;;;;5.03;3.47;;;;;;;11.85;100.00;99687.72;5042433;28;20032;-93
2022/06/02 03:27:23;;;;;;;3.63;3.10;;;;;;;11.80;100.00;99689.63;5058364;28;20043;-92
2022/06/02 03:30:29;;;;;;;2.83;2.63;;;;;;;11.88;100.00;99712.09;5043690;28;20041;-93
2022/06/02 03:33:29;;;;;;;3.88;3.08;;;;;;;11.89;100.00;99720.81;5044496;28;20165;-92
2022/06/02 03:36:24;;;;;;;5.00;3.00;;;;;;;11.84;100.00;99717.47;5058585;28;20398;-93
2022/06/02 03:39:22;;;;;;;4.18;2.72;;;;;;;11.78;100.00;99733.41;5044984;28;20037;-93
2022/06/02 03:42:24;;;;;;;3.85;3.20;;;;;;;11.59;100.00;99744.44;5044265;28;20032;-93
2022/06/02 03:45:14;;;;;;;2.30;2.10;;;;;;;11.82;100.00;99751.63;5042932;28;20082;-93
2022/06/02 03:48:32;;;;;;;2.40;1.80;;;;;;;11.96;100.00;99755.59;5044300;28;20044;-93
2022/06/02 03:51:46;;;;;;;2.33;2.13;;;;;;;11.76;100.00;99779.81;5058572;28;20040;-93
2022/06/02 03:54:43;;;;;;;;;;;;;;;11.86;100.00;99782.16;5057686;28;20044;-93
2022/06/02 03:57:52;;;;;;;3.65;2.78;;;;;;;11.74;100.00;99789.50;5044780;28;19974;-92
2022/06/02 04:00:54;;;;;;;2.35;2.15;;;;;;;11.83;100.00;99789.22;5047745;28;20067;-92
2022/06/02 04:04:00;;;;;;;2.40;2.20;;;;;;;11.84;100.00;99801.44;5043482;28;20044;-92
2022/06/02 04:06:44;;;;;;;2.53;2.05;;;;;;;11.88;100.00;99821.47;5043900;28;20637;-92
2022/06/02 04:09:41;;;;;;;3.35;2.17;;;;;;;12.01;100.00;99822.81;5057592;28;20463;-92
2022/06/02 04:16:10;;;;;;;4.13;2.13;;;;;;;11.77;100.00;99837.50;5054298;28;20047;-92
2022/06/02 04:22:47;;;;;;;4.15;1.58;;;;;;;12.09;100.00;99851.44;5058262;28;20045;-92
2022/06/02 04:26:10;;;;;;;2.45;2.15;;;;;;;12.14;100.00;99867.94;5057095;28;20033;-92
2022/06/02 04:29:26;;;;;;;1.80;1.70;;;;;;;12.05;100.00;99857.69;5041253;28;20055;-92
2022/06/02 04:32:49;;;;;;;1.98;1.80;;;;;;;12.25;100.00;99878.09;5042637;28;20090;-93
2022/06/02 04:36:05;;;;;;;2.83;1.90;;;;;;;12.16;100.00;99887.13;5042922;28;20040;-92
2022/06/02 04:39:18;;;;;;;1.60;1.50;;;;;;;12.21;100.00;99882.59;5042249;28;20036;-93
2022/06/02 04:42:32;;;;;;;3.90;2.03;;;;;;;11.80;100.00;99873.31;5052748;28;20036;-94
2022/06/02 04:45:43;;;;;;;2.25;2.05;;;;;;;11.70;100.00;99881.44;4997539;28;20041;-93
2022/06/02 04:49:00;;;;;;;1.88;1.60;;;;;;;11.81;100.00;99891.59;5051097;28;20036;-94
2022/06/02 04:52:00;;;;;;;2.28;2.05;;;;;;;11.93;100.00;99887.81;5043393;28;20044;-93
2022/06/02 04:55:00;;;;;;;5.70;1.83;;;;;;;12.10;100.00;99887.31;5040020;28;20487;-93
2022/06/02 04:57:58;;;;;;;2.17;1.75;;;;;;;12.10;100.00;99906.53;5040566;28;20107;-93
2022/06/02 05:01:33;;;;;;;2.40;1.90;;;;;;;12.01;100.00;99914.69;5026159;28;20048;-94
2022/06/02 05:04:36;;;;;;;1.60;1.50;;;;;;;12.11;100.00;99924.00;5003627;28;20492;-93
2022/06/02 05:07:43;;;;;;;;;;;;;;;11.79;100.00;99916.16;5016970;28;20480;-93
2022/06/02 05:10:51;;;;;;;4.47;1.75;;;;;;;11.75;100.00;99922.41;5041238;28;20767;-93
2022/06/02 05:13:48;;;;;;;1.50;1.38;;;;;;;11.67;100.00;99938.38;5041849;28;20475;-93
2022/06/02 05:16:41;;;;;;;3.63;1.15;;;;;;;11.58;100.00;99931.63;5057688;28;20391;-94
2022/06/02 05:19:35;;;;;;;2.10;1.27;;;;;;;11.69;100.00;99958.41;5041946;28;20043;-94
2022/06/02 05:22:40;;;;;;;1.63;1.45;;;;;;;11.63;100.00;99963.84;5042355;28;20037;-93
2022/06/02 05:25:55;;;;;;;3.03;1.33;;;;;;;11.58;100.00;99967.47;5025436;28;20099;-93
2022/06/02 05:28:55;;;;;;;2.08;1.48;;;;;;;11.43;100.00;99945.13;5042489;28;20383;-93
2022/06/02 05:32:04;;;;;;;1.35;1.25;;;;;;;11.60;100.00;99984.03;5051928;28;20040;-94
2022/06/02 05:34:54;;;;;;;3.70;1.65;;;;;;;11.55;100.00;99950.06;5048987;28;20036;-94
2022/06/02 05:37:39;;;;;;;1.98;1.45;;;;;;;11.52;100.00;99967.63;5043484;28;20078;-95
2022/06/02 05:40:38;;;;;;;2.55;1.70;;;;;;;11.53;100.00;99958.88;5057622;28;20119;-94
2022/06/02 05:43:25;;;;;;;1.65;1.48;;;;;;;11.40;100.00;99967.03;5043158;28;20033;-94
2022/06/02 05:46:16;;;;;;;4.45;1.58;;;;;;;11.33;100.00;99975.13;5034083;28;20052;-93
2022/06/02 05:49:19;;;;;;;1.85;1.38;;;;;;;11.34;100.00;99961.97;5056253;28;20040;-93
2022/06/02 05:52:16;;;;;;;;;;;;;;;11.41;100.00;99984.53;5043202;28;20094;-94
2022/06/02 05:55:23;;;;;;;1.48;1.00;;;;;;;11.57;100.00;99976.22;5042635;28;19924;-94
2022/06/02 05:58:31;;;;;;;1.27;1.10;;;;;;;11.67;100.00;99977.75;5043704;28;20049;-93
2022/06/02 06:01:39;;;;;;;2.05;0.60;;;;;;;11.84;100.00;99975.53;5042479;28;20033;-93
2022/06/02 06:04:44;;;;;;;1.05;0.98;;;;;;;12.00;100.00;99981.22;5049577;28;20036;-93
2022/06/02 06:08:02;;;;;;;0.63;0.40;;;;;;;12.12;100.00;99977.38;5025806;28;20045;-93
2022/06/02 06:11:08;;;;;;;1.83;0.88;;;;;;;11.96;100.00;99983.97;5045649;28;20043;-93
2022/06/02 06:14:24;;;;;;;0.88;0.60;;;;;;;11.76;100.00;99982.72;5053508;28;20414;-93
2022/06/02 06:17:40;;;;;;;0.85;0.68;;;;;;;11.76;100.00;99981.84;5045637;28;20120;-94
2022/06/02 06:21:16;;;;;;;0.88;0.52;;;;;;;11.93;100.00;99982.31;5023385;28;20052;-94
2022/06/02 06:24:38;;;;;;;7.70;5.07;;;;;;;11.84;100.00;99978.16;5038779;28;20112;-96
2022/06/02 06:27:32;;;;;;;21.77;15.93;;;;;;;11.78;100.00;99978.28;5045343;28;20055;-96
2022/06/02 06:30:41;;;;;;;19.33;12.88;;;;;;;11.92;100.00;99977.94;5049918;28;20399;-96
2022/06/02 06:33:40;;;;;;;7.68;6.43;;;;;;;11.93;100.00;99988.41;5044992;28;20028;-96
2022/06/02 06:36:58;;;;;;;5.60;3.60;;;;;;;12.08;100.00;99975.75;5050763;28;20106;-96
2022/06/02 06:40:02;;;;;;;3.15;2.42;;;;;;;12.60;100.00;99963.69;5032637;28;20380;-95
2022/06/02 06:43:04;;;;;;;;;;;;;;;13.18;100.00;99974.13;5050623;28;20082;-96
2022/06/02 06:46:14;;;;;;;2.10;1.30;;;;;;;13.36;100.00;99977.94;5047014;28;20164;-96
2022/06/02 06:49:09;;;;;;;1.70;1.48;;;;;;;13.08;100.00;99952.53;5046468;28;20037;-96
2022/06/02 06:52:11;;;;;;;4.25;1.73;;;;;;;13.23;100.00;99986.22;5030162;28;20131;-96
2022/06/02 06:55:00;;;;;;;1.25;0.82;;;;;;;13.30;100.00;99981.66;5047570;28;20115;-96
2022/06/02 06:57:57;;;;;;;1.25;0.93;;;;;;;13.86;100.00;99975.31;5043058;28;20086;-96
2022/06/02 07:00:48;;;;;;;3.65;1.65;;;;;;;13.30;100.00;99956.19;5026599;28;20044;-95
2022/06/02 07:03:47;;;;;;;3.03;2.05;;;;;;;13.64;100.00;99988.38;5045264;28;20032;-96
2022/06/02 07:06:57;;;;;;;3.50;2.30;;;;;;;15.67;100.00;99987.56;5042910;28;20052;-96
2022/06/02 07:10:00;;;;;;;4.15;2.70;;;;;;;14.74;100.00;99984.31;5046866;28;20036;-96
2022/06/02 07:13:09;;;;;;;2.78;1.67;;;;;;;15.13;100.00;99986.28;5045638;28;20091;-96
2022/06/02 07:16:10;;;;;;;3.70;1.30;;;;;;;15.73;100.00;99995.22;5045293;28;20044;-96
2022/06/02 07:19:09;;;;;;;2.95;0.98;;;;;;;17.13;100.00;99988.81;5047637;28;20040;-96
2022/06/02 07:21:57;;;;;;;1.33;0.80;;;;;;;17.66;100.00;99996.69;5060039;28;20043;-96
2022/06/02 07:25:14;;;;;;;1.17;0.93;;;;;;;17.13;100.00;99996.75;5028947;28;20059;-95
2022/06/02 07:28:14;;;;;;;1.70;0.82;;;;;;;17.63;100.00;99991.56;5043559;28;20043;-96
2022/06/02 07:31:11;;;;;;;1.05;0.47;;;;;;;18.05;100.00;99987.66;5045472;28;20071;-95
2022/06/02 07:34:27;;;;;;;1.15;0.60;;;;;;;18.63;100.00;99978.31;5045445;28;20398;-96
2022/06/02 07:37:27;;;;;;;1.25;0.68;;;;;;;18.72;100.00;99992.84;5044215;28;20044;-95
2022/06/02 07:40:28;;;;;;;3.15;0.52;;;;;;;19.35;100.00;99993.69;5045531;28;20036;-96
2022/06/02 07:43:34;;;;;;;1.83;0.90;;;;;;;18.83;100.00;99993.16;5052299;28;20059;-95
2022/06/02 07:46:37;;;;;;;1.08;0.68;;;;;;;19.66;100.00;99985.72;5051801;28;20036;-96
2022/06/02 07:49:39;;;;;;;1.60;0.57;;;;;;;19.65;100.00;99992.84;5044131;28;20441;-96
2022/06/02 07:52:59;;;;;;;1.25;0.50;;;;;;;20.63;100.00;99984.16;5057115;28;20546;-96
2022/06/02 07:56:04;;;;;;;1.33;0.50;;;;;;;20.22;100.00;99984.09;5041769;28;20123;-95
2022/06/02 07:58:58;;;;;;;0.95;0.40;;;;;;;20.20;100.00;99986.81;5044396;28;20036;-95
2022/06/02 08:02:14;;;;;;;0.30;0.30;;;;;;;20.18;100.00;99993.19;5056270;28;20037;-96
2022/06/02 08:05:08;;;;;;;1.25;0.25;;;;;;;20.45;92.97;100002.13;5043932;28;20098;-95
2022/06/02 08:08:00;;;;;;;0.57;0.40;;;;;;;20.29;93.01;99980.09;5040536;28;20032;-96
2022/06/02 08:11:04;;;;;;;1.75;0.20;;;;;;;21.28;93.58;99998.59;5044634;28;20044;-95
2022/06/02 08:14:20;;;;;;;1.02;0.38;;;;;;;20.63;90.89;100001.91;5044530;28;20059;-95
2022/06/02 08:17:21;;;;;;;0.60;0.17;;;;;;;22.07;96.27;99989.69;5058737;28;20044;-95
2022/06/02 08:20:09;;;;;;;0.40;0.30;;;;;;;21.24;90.17;100022.75;5058507;28;20139;-96
2022/06/02 08:22:57;;;;;;;0.95;0.35;;;;;;;21.76;94.99;100017.59;5041516;28;20052;-95
2022/06/02 08:25:56;;;;;;;1.45;0.30;;;;;;;20.54;88.71;99995.41;5043903;28;20036;-95
2022/06/02 08:29:08;;;;;;;0.65;0.32;;;;;;;21.40;88.96;100008.47;5041848;28;20045;-96
2022/06/02 08:32:05;;;;;;;0.82;0.30;;;;;;;21.82;83.81;100022.50;5037046;28;20044;-95
2022/06/02 08:35:10;;;;;;;0.82;0.17;;;;;;;21.67;82.58;100014.59;5028100;28;20391;-96
2022/06/02 08:38:11;;;;;;;0.65;0.20;;;;;;;21.30;83.39;100005.53;5043219;28;20117;-96
2022/06/02 08:41:31;;;;;;;1.30;0.30;;;;;;;21.43;81.91;100016.25;5058093;28;20041;-95
2022/06/02 08:44:56;;;;;;;1.15;0.35;;;;;;;21.72;83.47;100013.44;5036860;28;20063;-95
2022/06/02 08:48:12;;;;;;;0.38;0.30;;;;;;;21.80;83.52;100033.28;5042998;28;20098;-94
2022/06/02 08:51:24;;;;;;;1.95;0.30;;;;;;;22.03;81.03;100026.34;5043666;28;20036;-94
2022/06/02 08:54:37;;;;;;;0.43;0.20;;;;;;;22.58;77.23;100018.97;5044251;28;20040;-94
2022/06/02 08:57:28;;;;;;;0.63;0.28;;;;;;;;;;5057727;28;20052;-94
2022/06/02 09:00:33;;;;;;;1.23;0.13;;;;;;;21.23;79.00;100030.88;5045897;28;20044;-95
2022/06/02 09:03:53;;;;;;;0.95;0.25;;;;;;;21.97;75.03;100049.91;5047024;28;20049;-95
2022/06/02 09:07:08;;;;;;;0.75;0.50;;;;;;;21.99;71.57;100040.88;5045163;28;20047;-93
2022/06/02 09:10:17;;;;;;;0.88;0.52;;;;;;;22.18;67.08;100045.81;5043457;28;20039;-94
2022/06/02 09:13:23;;;;;;;1.50;0.40;;;;;;;21.79;67.61;100052.91;5048364;28;20056;-94
2022/06/02 09:16:34;;;;;;;0.63;0.30;;;;;;;21.89;73.22;100050.47;5043351;28;20498;-94
2022/06/02 09:19:25;;;;;;;0.80;0.43;;;;;;;22.63;65.79;100052.41;5044280;28;20048;-94
2022/06/02 09:22:09;;;;;;;0.60;0.30;;;;;;;23.46;70.62;100048.19;5042277;28;20033;-95
2022/06/02 09:25:11;;;;;;;0.60;0.20;;;;;;;22.09;67.63;100025.94;5044020;28;20040;-94
2022/06/02 09:28:14;;;;;;;0.30;0.22;;;;;;;23.24;66.37;100052.47;5045715;28;20028;-94
2022/06/02 09:31:49;;;;;;;0.45;0.20;;;;;;;22.98;64.70;100050.88;5038974;28;20044;-94
2022/06/02 09:34:57;;;;;;;0.43;0.40;;;;;;;22.11;65.83;100055.19;4978821;28;20049;-93
2022/06/02 09:38:09;;;;;;;0.60;0.25;;;;;;;22.97;64.62;100057.16;5042451;28;20036;-94
2022/06/02 09:41:29;;;;;;;0.30;0.20;;;;;;;22.83;63.29;100063.47;5026773;28;20418;-93
2022/06/02 09:44:42;;;;;;;2.67;0.20;;;;;;;23.14;64.14;100053.25;5030916;28;20457;-94
2022/06/02 09:47:48;;;;;;;0.60;0.43;;;;;;;23.83;59.75;100067.69;5042294;28;20037;-95
2022/06/02 09:50:48;;;;;;;1.40;0.20;;;;;;;22.80;62.13;100050.34;5058689;28;20037;-96
2022/06/02 09:53:45;;;;;;;2.25;0.82;;;;;;;22.98;61.90;100078.44;5030983;28;20135;-94
2022/06/02 09:56:50;;;;;;;0.60;0.30;;;;;;;23.01;61.17;100043.47;5045293;28;20106;-95
2022/06/02 09:59:40;;;;;;;1.35;0.20;;;;;;;23.78;59.76;100076.06;5046216;28;20033;-92
2022/06/02 10:02:40;;;;;;;0.22;0.10;;;;;;;23.30;60.33;100061.84;5029684;28;20507;-93
2022/06/02 10:05:49;;;;;;;0.30;0.20;;;;;;;22.97;61.94;100082.03;5046786;28;20113;-94
2022/06/02 10:09:11;;;;;;;1.80;0.30;;;;;;;23.82;63.02;100065.13;5055843;28;20044;-92
2022/06/02 10:15:34;;;;;;;3.35;0.40;;;;;;;22.15;61.73;100080.66;5058456;28;20036;-91
2022/06/02 10:18:43;;;;;;;0.60;0.20;;;;;;;21.96;62.10;100078.41;5054728;28;20121;-91
2022/06/02 10:22:06;;;;;;;0.82;0.20;;;;;;;23.40;63.15;100076.25;5047077;28;20037;-92
2022/06/02 10:24:51;;;;;;;0.95;0.30;;;;;;;23.03;61.73;100078.94;5046710;28;20558;-92
2022/06/02 10:27:41;;;;;;;0.47;0.30;;;;;;;22.64;60.39;100083.47;5049912;28;20040;-90
2022/06/02 10:30:59;;;;;;;0.63;0.20;;;;;;;22.74;59.30;100086.31;5046644;28;20403;-91
2022/06/02 10:34:15;;;;;;;0.30;0.10;;;;;;;22.42;62.05;100091.25;5055783;28;20197;-91
2022/06/02 10:37:18;;;;;;;0.82;0.30;;;;;;;20.65;62.54;100099.34;5046197;28;20036;-92
2022/06/02 10:40:11;;;;;;;1.30;0.40;;;;;;;22.87;57.33;100091.66;5049341;28;20041;-92
2022/06/02 10:43:24;;;;;;;3.30;0.20;;;;;;;22.46;59.36;100086.59;5041236;28;20043;-90
2022/06/02 10:46:14;;;;;;;0.90;0.20;;;;;;;22.30;60.17;100095.66;5044122;28;20036;-92
2022/06/02 10:49:34;;;;;;;0.40;0.20;;;;;;;21.02;61.10;100087.19;5042471;28;20040;-92
2022/06/02 10:52:45;;;;;;;3.20;0.30;;;;;;;23.03;59.13;100078.94;5059767;28;20036;-91
2022/06/02 10:55:51;;;;;;;0.40;0.20;;;;;;;22.80;56.28;100093.91;5045625;28;20036;-91
2022/06/02 10:59:14;;;;;;;0.40;0.10;;;;;;;21.93;57.11;100097.28;5051464;28;20051;-92
2022/06/02 11:02:10;;;;;;;1.40;0.20;;;;;;;23.50;57.47;100093.31;5046175;28;20041;-92
2022/06/02 11:05:32;;;;;;;0.45;0.20;;;;;;;23.87;58.96;100103.94;5046432;28;20049;-92
2022/06/02 11:08:54;;;;;;;0.80;0.30;;;;;;;23.30;56.55;100097.44;5043769;28;20032;-92
2022/06/02 11:12:03;;;;;;;0.93;0.20;;;;;;;22.72;55.53;100098.09;5045319;28;20040;-91
2022/06/02 11:14:48;;;;;;;2.25;0.65;;;;;;;22.20;57.39;100097.25;5044197;28;20352;-92
2022/06/02 11:17:51;;;;;;;0.32;0.20;;;;;;;23.60;53.03;100090.78;5049040;28;20047;-91
2022/06/02 11:20:56;;;;;;;1.35;0.20;;;;;;;23.82;56.51;100095.38;5045180;28;20041;-92
2022/06/02 11:24:33;;;;;;;0.30;0.20;;;;;;;22.22;59.87;100098.00;5057164;28;20040;-93
2022/06/02 11:27:53;;;;;;;2.08;0.30;;;;;;;21.78;60.57;100093.00;5027321;28;20045;-92
2022/06/02 11:30:59;;;;;;;0.73;0.30;;;;;;;22.63;57.34;100086.25;5043723;28;20059;-93
2022/06/02 11:34:16;;;;;;;3.10;0.20;;;;;;;23.56;54.54;100092.84;5054625;28;20132;-91
2022/06/02 11:37:20;;;;;;;1.60;1.50;;;;;;;23.62;54.09;100074.63;5040368;28;20089;-92
2022/06/02 11:40:31;;;;;;;7.13;6.20;;;;;;;23.09;53.88;100088.31;5044877;28;20039;-92
2022/06/02 11:43:27;;;;;;;0.60;0.60;;;;;;;22.83;55.30;100077.66;5044147;28;20036;-92
2022/06/02 11:46:20;;;;;;;1.05;0.88;;;;;;;22.56;59.35;100079.66;5044097;28;20274;-92
2022/06/02 11:49:42;;;;;;;6.45;5.85;;;;;;;21.96;57.74;100080.22;5044123;28;20059;-92
2022/06/02 11:52:43;;;;;;;1.63;0.82;;;;;;;23.40;56.31;100078.03;5044703;28;20044;-92
2022/06/02 11:55:41;;;;;;;1.67;0.20;;;;;;;24.13;51.72;100069.00;5027736;28;20052;-92
2022/06/02 11:58:37;;;;;;;1.15;0.25;;;;;;;22.90;54.75;100070.06;5045066;28;20375;-92
2022/06/02 12:01:44;;;;;;;5.70;4.43;;;;;;;23.41;50.14;100058.38;5042083;28;20029;-92
2022/06/02 12:05:00;;;;;;;2.67;0.80;;;;;;;23.95;49.13;100068.56;5057470;28;20056;-91
2022/06/02 12:08:09;;;;;;;0.63;0.30;;;;;;;24.24;49.19;100077.91;5043491;28;20040;-92
2022/06/02 12:11:28;;;;;;;0.60;0.30;;;;;;;24.08;48.52;100076.50;5047309;28;20044;-93
2022/06/02 12:14:49;;;;;;;1.38;0.17;;;;;;;24.27;50.46;100074.94;5041553;28;20044;-93
2022/06/02 12:17:53;;;;;;;0.93;0.20;;;;;;;22.26;54.51;100072.84;5043283;28;20036;-93
2022/06/02 12:21:17;;;;;;;1.25;1.02;;;;;;;21.62;50.89;100070.03;5025822;28;20061;-92
2022/06/02 12:24:11;;;;;;;1.92;0.38;;;;;;;22.81;54.16;100081.41;5042629;28;20068;-93
2022/06/02 12:27:04;;;;;;;0.90;0.30;;;;;;;23.18;50.30;100079.66;5045034;28;20093;-96
2022/06/02 12:30:03;;;;;;;0.60;0.20;;;;;;;22.43;51.37;100082.31;5031491;28;20044;-94
2022/06/02 12:32:53;;;;;;;0.75;0.30;;;;;;;21.61;55.71;100100.31;5044025;28;20050;-95
2022/06/02 12:36:00;;;;;;;0.30;0.20;;;;;;;21.46;56.23;100099.50;5024833;28;20056;-94
2022/06/02 12:39:03;;;;;;;0.65;0.20;;;;;;;20.93;56.65;100092.28;5040654;28;20044;-95
2022/06/02 12:42:15;;;;;;;0.85;0.40;;;;;;;22.52;51.74;100095.03;5041967;28;20063;-95
2022/06/02 12:45:15;;;;;;;0.32;0.10;;;;;;;23.06;51.73;100085.88;5039333;28;20036;-95
2022/06/02 12:48:38;;;;;;;0.30;0.20;;;;;;;23.07;51.04;100075.09;5042535;28;20170;-94
2022/06/02 12:52:01;;;;;;;1.95;0.20;;;;;;;23.51;50.29;100091.47;5040474;28;20045;-95
2022/06/02 12:55:19;;;;;;;0.88;0.20;;;;;;;22.66;51.32;100099.38;5042469;28;20124;-95
2022/06/02 12:58:25;;;;;;;1.88;1.10;;;;;;;23.62;50.87;100102.22;5040093;28;20097;-96
2022/06/02 13:01:29;;;;;;;4.93;1.33;;;;;;;23.63;51.98;100103.09;5024675;28;20059;-94
2022/06/02 13:04:35;;;;;;;4.28;1.85;;;;;;;22.15;53.22;100102.00;5042503;28;20040;-95
2022/06/02 13:07:38;;;;;;;0.50;0.30;;;;;;;22.77;52.58;100106.63;5042673;28;20036;-95
2022/06/02 13:11:05;;;;;;;1.00;0.17;;;;;;;22.89;50.01;100099.56;5043271;28;20091;-94
2022/06/02 13:14:08;;;;;;;12.73;11.52;;;;;;;23.44;51.61;100092.91;5049230;28;20132;-95
2022/06/02 13:17:22;;;;;;;2.17;1.90;;;;;;;23.48;50.05;100087.22;5041387;28;20086;-93
2022/06/02 13:20:21;;;;;;;7.63;4.20;;;;;;;23.32;50.21;100098.16;5041309;28;20064;-93
2022/06/02 13:23:36;;;;;;;5.35;2.75;;;;;;;22.81;49.74;100086.75;5043808;28;20040;-94
2022/06/02 13:26:55;;;;;;;2.28;1.80;;;;;;;23.20;49.88;100100.88;5040626;28;20036;-93
2022/06/02 13:30:16;;;;;;;0.47;0.28;;;;;;;22.16;52.07;100106.41;5042506;28;20041;-93
2022/06/02 13:33:32;;;;;;;0.20;0.10;;;;;;;21.96;50.91;100098.88;5039741;28;20119;-93
2022/06/02 13:36:22;;;;;;;1.58;0.10;;;;;;;22.73;50.03;100078.44;5054699;28;20453;-94
2022/06/02 13:39:35;;;;;;;0.90;0.10;;;;;;;21.92;50.69;100096.44;5055304;28;20736;-93
2022/06/02 13:42:33;;;;;;;0.65;0.20;;;;;;;21.83;53.02;100115.69;5040643;28;20033;-93
2022/06/02 13:45:52;;;;;;;1.00;0.73;;;;;;;22.06;51.32;100100.81;5040414;28;20064;-93
2022/06/02 13:49:09;;;;;;;2.00;0.43;;;;;;;21.70;53.46;100112.16;5041694;28;20044;-94
2022/06/02 13:52:12;;;;;;;1.55;0.47;;;;;;;20.96;52.55;100108.91;5040177;28;20089;-93
2022/06/02 13:58:33;;;;;;;1.85;0.10;;;;;;;22.13;51.64;100106.59;5069240;28;20036;-93
2022/06/02 14:01:21;;;;;;;;;;;;;;;22.22;51.35;100114.00;5055924;28;20033;-93
2022/06/02 14:04:20;;;;;;;0.10;0.00;;;;;;;22.22;51.62;100108.66;5040779;28;20444;-93
2022/06/02 14:07:31;;;;;;;0.20;0.10;;;;;;;21.87;50.48;100114.56;5042446;28;20040;-93
2022/06/02 14:10:55;;;;;;;0.10;0.00;;;;;;;21.41;53.09;100114.06;5041421;28;20037;-93
2022/06/02 14:13:55;;;;;;;0.20;0.10;;;;;;;20.73;52.67;100106.81;5025069;28;21622;-92
2022/06/02 14:17:18;;;;;;;0.15;0.00;;;;;;;21.22;52.83;100120.56;5041469;28;20040;-92
2022/06/02 14:20:32;;;;;;;0.10;0.00;;;;;;;21.65;52.03;100128.47;5045360;28;20044;-93
2022/06/02 14:23:16;;;;;;;;;;;;;;;21.48;50.75;100118.03;5041241;28;20068;-94
2022/06/02 14:26:23;;;;;;;0.05;0.00;;;;;;;21.59;49.98;100123.53;5040232;28;19981;-92
2022/06/02 14:29:28;;;;;;;6.57;0.10;;;;;;;21.27;51.15;100111.41;5041872;28;20028;-93
2022/06/02 14:32:23;;;;;;;0.50;0.08;;;;;;;20.58;52.01;100121.09;5059072;28;20596;-93
2022/06/02 14:35:32;;;;;;;1.63;0.15;;;;;;;20.84;53.41;100117.66;5058231;28;20041;-94
2022/06/02 14:38:37;;;;;;;2.20;0.22;;;;;;;20.95;53.81;100112.50;5046451;28;20032;-95